Time;durP1;ratioP1;P1;durP2;ratioP2;P2;SDS_P1;SDS_P2;PMS_P1;PMS_P2;Temp;Humidity;BMP_temperature;BMP_pressure;BME280_temperature;BME280_humidity;BME280_pressure;Samples;Min_cycle;Max_cycle;Signal;HPM_P1;HPM_P2
2021/06/04 00:01:10;;;;;;;;;3.00;2.67;;;;;;;;5023440;28;8846;-59
2021/06/04 00:03:36;;;;;;;;;4.00;2.00;;;;;;;;5027414;28;11571;-59
2021/06/04 00:06:01;;;;;;;;;2.50;2.00;;;;;;;;5026346;28;11921;-59
2021/06/04 00:08:26;;;;;;;;;2.00;2.00;;;;;;;;5024618;28;8945;-59
2021/06/04 00:10:57;;;;;;;;;3.00;3.00;;;;;;;;5021180;28;8806;-59
2021/06/04 00:13:25;;;;;;;;;2.75;2.00;;;;;;;;5027866;28;9841;-60
2021/06/04 00:15:51;;;;;;;;;2.00;2.00;;;;;;;;5028021;28;10545;-61
2021/06/04 00:18:17;;;;;;;;;2.50;2.00;;;;;;;;5023283;28;8789;-61
2021/06/04 00:20:42;;;;;;;;;2.00;2.00;;;;;;;;5035112;28;8795;-61
2021/06/04 00:23:07;;;;;;;;;2.00;2.00;;;;;;;;5022819;28;8846;-61
2021/06/04 00:25:38;;;;;;;;;1.67;1.67;;;;;;;;5026802;28;8820;-58
2021/06/04 00:28:04;;;;;;;;;2.00;2.00;;;;;;;;5027643;28;11749;-60
2021/06/04 00:30:29;;;;;;;;;1.75;1.75;;;;;;;;5025630;28;11909;-61
2021/06/04 00:32:54;;;;;;;;;3.00;2.00;;;;;;;;5028322;28;11475;-60
2021/06/04 00:35:20;;;;;;;;;2.00;2.00;;;;;;;;5027902;28;11550;-60
2021/06/04 00:37:45;;;;;;;;;3.00;3.00;;;;;;;;5020036;28;8945;-60
2021/06/04 00:40:12;;;;;;;;;2.00;1.67;;;;;;;;5029590;28;9894;-60
2021/06/04 00:42:38;;;;;;;;;2.00;2.00;;;;;;;;5020134;28;11557;-59
2021/06/04 00:45:07;;;;;;;;;1.33;1.33;;;;;;;;5024472;28;8980;-59
2021/06/04 00:47:32;;;;;;;;;0.00;0.00;;;;;;;;5032120;28;11612;-59
2021/06/04 00:49:57;;;;;;;;;2.00;1.33;;;;;;;;5025803;28;11287;-59
2021/06/04 00:52:26;;;;;;;;;2.00;1.33;;;;;;;;5023516;28;11490;-59
2021/06/04 00:54:53;;;;;;;;;2.00;2.00;;;;;;;;5029256;28;8798;-59
2021/06/04 00:57:19;;;;;;;;;2.00;2.00;;;;;;;;5024038;28;9107;-59
2021/06/04 00:59:45;;;;;;;;;2.67;2.67;;;;;;;;5024128;28;8802;-60
2021/06/04 01:02:18;;;;;;;;;2.25;2.25;;;;;;;;5028958;28;8921;-59
2021/06/04 01:04:44;;;;;;;;;2.00;2.00;;;;;;;;5026086;28;9814;-59
2021/06/04 01:07:28;;;;;;;;;3.00;2.25;;;;;;;;5024831;28;9050;-59
2021/06/04 01:09:59;;;;;;;;;2.00;2.00;;;;;;;;5028071;28;11571;-59
2021/06/04 01:12:37;;;;;;;;;2.00;2.00;;;;;;;;5021264;28;11645;-59
2021/06/04 01:15:08;;;;;;;;;3.00;2.25;;;;;;;;5031743;28;8786;-59
2021/06/04 01:17:33;;;;;;;;;2.00;2.00;;;;;;;;5027195;28;11653;-59
2021/06/04 01:20:06;;;;;;;;;2.00;2.00;;;;;;;;5026531;28;11532;-59
2021/06/04 01:22:42;;;;;;;;;1.00;1.00;;;;;;;;5029321;28;8822;-59
2021/06/04 01:25:21;;;;;;;;;2.25;2.25;;;;;;;;5024641;28;8794;-60
2021/06/04 01:27:47;;;;;;;;;2.00;2.00;;;;;;;;5019481;28;11568;-59
2021/06/04 01:30:15;;;;;;;;;3.75;2.50;;;;;;;;5031307;28;8831;-59
2021/06/04 01:32:41;;;;;;;;;3.00;3.00;;;;;;;;5028143;28;11754;-60
2021/06/04 01:35:10;;;;;;;;;2.00;2.00;;;;;;;;5026305;28;10427;-60
2021/06/04 01:37:36;;;;;;;;;2.00;2.00;;;;;;;;5023464;28;11717;-60
2021/06/04 01:40:23;;;;;;;;;3.00;3.00;;;;;;;;5025369;28;8814;-60
2021/06/04 01:42:48;;;;;;;;;2.75;2.00;;;;;;;;5027237;28;8830;-60
2021/06/04 01:45:22;;;;;;;;;3.00;2.00;;;;;;;;5029172;28;10444;-60
2021/06/04 01:47:56;;;;;;;;;3.25;3.00;;;;;;;;5023466;28;8806;-59
2021/06/04 01:50:24;;;;;;;;;2.00;1.00;;;;;;;;5028351;28;9714;-60
2021/06/04 01:52:50;;;;;;;;;2.50;2.50;;;;;;;;5023485;28;10522;-59
2021/06/04 01:55:22;;;;;;;;;2.00;2.00;;;;;;;;5026963;28;10486;-59
2021/06/04 01:57:55;;;;;;;;;2.00;2.00;;;;;;;;5027166;28;8787;-59
2021/06/04 02:00:26;;;;;;;;;2.25;2.25;;;;;;;;5022455;28;8779;-60
2021/06/04 02:02:51;;;;;;;;;2.50;2.50;;;;;;;;5024652;28;10832;-60
2021/06/04 02:05:19;;;;;;;;;2.67;2.00;;;;;;;;5019291;28;8832;-60
2021/06/04 02:07:44;;;;;;;;;2.25;2.00;;;;;;;;5020819;28;8816;-59
2021/06/04 02:10:12;;;;;;;;;2.00;2.00;;;;;;;;5024618;28;8802;-59
2021/06/04 02:12:38;;;;;;;;;1.50;1.50;;;;;;;;5025231;28;9182;-59
2021/06/04 02:15:11;;;;;;;;;2.33;2.00;;;;;;;;5026927;28;11479;-60
2021/06/04 02:17:45;;;;;;;;;3.25;3.00;;;;;;;;5025275;28;11636;-60
2021/06/04 02:20:19;;;;;;;;;2.00;2.00;;;;;;;;5022060;28;13254;-60
2021/06/04 02:22:51;;;;;;;;;2.00;2.00;;;;;;;;5020745;28;10582;-59
2021/06/04 02:25:23;;;;;;;;;2.00;2.00;;;;;;;;5028754;28;8791;-60
2021/06/04 02:27:51;;;;;;;;;2.75;2.75;;;;;;;;5024424;28;9499;-60
2021/06/04 02:30:24;;;;;;;;;1.75;1.75;;;;;;;;5026889;28;8845;-59
2021/06/04 02:33:04;;;;;;;;;1.75;1.25;;;;;;;;5023052;28;8783;-61
2021/06/04 02:35:38;;;;;;;;;2.00;2.00;;;;;;;;5024822;28;8901;-60
2021/06/04 02:38:09;;;;;;;;;2.50;2.50;;;;;;;;5024460;28;11639;-60
2021/06/04 02:40:39;;;;;;;;;2.00;2.00;;;;;;;;5025231;28;8807;-60
2021/06/04 02:43:11;;;;;;;;;1.00;1.00;;;;;;;;5021918;28;8827;-59
2021/06/04 02:45:39;;;;;;;;;2.00;2.00;;;;;;;;5028229;28;8960;-59
2021/06/04 02:48:10;;;;;;;;;1.00;1.00;;;;;;;;5026856;28;8799;-60
2021/06/04 02:50:44;;;;;;;;;2.00;2.00;;;;;;;;5026177;28;8801;-60
2021/06/04 02:53:18;;;;;;;;;1.50;1.50;;;;;;;;5020375;28;13299;-60
2021/06/04 02:55:59;;;;;;;;;2.50;2.50;;;;;;;;5026669;28;11629;-60
2021/06/04 02:58:24;;;;;;;;;1.00;1.00;;;;;;;;5022908;28;9934;-59
2021/06/04 03:00:49;;;;;;;;;2.00;2.00;;;;;;;;5030098;28;11770;-59
2021/06/04 03:03:14;;;;;;;;;3.00;3.00;;;;;;;;5020461;28;8861;-60
2021/06/04 03:05:40;;;;;;;;;2.00;2.00;;;;;;;;5027597;28;8831;-60
2021/06/04 03:08:06;;;;;;;;;2.33;2.33;;;;;;;;5019319;28;8810;-60
2021/06/04 03:10:37;;;;;;;;;2.00;2.00;;;;;;;;5025426;28;8869;-60
2021/06/04 03:13:04;;;;;;;;;2.25;2.25;;;;;;;;5028976;28;8791;-60
2021/06/04 03:15:35;;;;;;;;;2.00;1.50;;;;;;;;5026849;28;8813;-60
2021/06/04 03:18:01;;;;;;;;;2.00;2.00;;;;;;;;5023347;28;10703;-60
2021/06/04 03:20:29;;;;;;;;;2.00;2.00;;;;;;;;5030194;28;8965;-59
2021/06/04 03:22:54;;;;;;;;;2.00;2.00;;;;;;;;5028477;28;8827;-60
2021/06/04 03:25:24;;;;;;;;;3.33;2.67;;;;;;;;5027575;28;8912;-59
2021/06/04 03:27:50;;;;;;;;;1.75;1.75;;;;;;;;5028709;28;11645;-60
2021/06/04 03:30:16;;;;;;;;;3.33;3.33;;;;;;;;5027504;28;11484;-59
2021/06/04 03:32:41;;;;;;;;;3.00;3.00;;;;;;;;5029177;28;10635;-59
2021/06/04 03:35:07;;;;;;;;;2.00;2.00;;;;;;;;5027609;28;8810;-60
2021/06/04 03:37:34;;;;;;;;;2.75;2.75;;;;;;;;5023441;28;8885;-60
2021/06/04 03:39:59;;;;;;;;;2.50;2.50;;;;;;;;5032067;28;8801;-60
2021/06/04 03:42:26;;;;;;;;;3.00;3.00;;;;;;;;5026549;28;8807;-59
2021/06/04 03:44:52;;;;;;;;;2.25;2.25;;;;;;;;5030880;28;11573;-60
2021/06/04 03:47:17;;;;;;;;;3.00;3.00;;;;;;;;5024526;28;12867;-59
2021/06/04 03:49:42;;;;;;;;;1.00;1.00;;;;;;;;5025502;28;11454;-59
2021/06/04 03:52:11;;;;;;;;;2.00;2.00;;;;;;;;5029509;28;9593;-60
2021/06/04 03:54:39;;;;;;;;;3.00;3.00;;;;;;;;5028412;28;8870;-60
2021/06/04 03:57:07;;;;;;;;;2.00;2.00;;;;;;;;5025835;28;8789;-59
2021/06/04 03:59:32;;;;;;;;;2.00;2.00;;;;;;;;5031647;28;8944;-60
2021/06/04 04:02:00;;;;;;;;;2.33;2.33;;;;;;;;5026247;28;8831;-60
2021/06/04 04:04:26;;;;;;;;;2.75;2.75;;;;;;;;5027713;28;8816;-59
2021/06/04 04:06:51;;;;;;;;;3.00;3.00;;;;;;;;5023449;28;8833;-60
2021/06/04 04:09:17;;;;;;;;;2.00;2.00;;;;;;;;5025425;28;11539;-59
2021/06/04 04:11:43;;;;;;;;;2.00;2.00;;;;;;;;5025610;28;9650;-60
2021/06/04 04:14:09;;;;;;;;;2.00;2.00;;;;;;;;5031903;28;8791;-60
2021/06/04 04:16:34;;;;;;;;;2.00;2.00;;;;;;;;5021525;28;9494;-60
2021/06/04 04:19:00;;;;;;;;;2.00;2.00;;;;;;;;5028638;28;8823;-60
2021/06/04 04:21:26;;;;;;;;;2.00;2.00;;;;;;;;5025618;28;8822;-60
2021/06/04 04:23:54;;;;;;;;;2.00;2.00;;;;;;;;5029206;28;8823;-60
2021/06/04 04:26:21;;;;;;;;;2.00;2.00;;;;;;;;5028294;28;8795;-59
2021/06/04 04:28:48;;;;;;;;;2.00;2.00;;;;;;;;5025276;28;8940;-60
2021/06/04 04:31:14;;;;;;;;;2.25;2.00;;;;;;;;5027521;28;8814;-60
2021/06/04 04:33:39;;;;;;;;;3.00;3.00;;;;;;;;5027679;28;8849;-59
2021/06/04 04:36:07;;;;;;;;;2.00;2.00;;;;;;;;5027376;28;11494;-60
2021/06/04 04:38:33;;;;;;;;;3.00;3.00;;;;;;;;5028777;28;9038;-59
2021/06/04 04:41:00;;;;;;;;;2.00;1.00;;;;;;;;5022613;28;8856;-59
2021/06/04 04:43:27;;;;;;;;;2.00;2.00;;;;;;;;5022583;28;12362;-60
2021/06/04 04:45:52;;;;;;;;;3.00;3.00;;;;;;;;5022752;28;8812;-59
2021/06/04 04:48:17;;;;;;;;;3.00;3.00;;;;;;;;5025564;28;8816;-60
2021/06/04 04:50:42;;;;;;;;;2.00;2.00;;;;;;;;5029632;28;8813;-60
2021/06/04 04:53:08;;;;;;;;;2.00;2.00;;;;;;;;5024221;28;8829;-59
2021/06/04 04:55:35;;;;;;;;;1.00;1.00;;;;;;;;5022484;28;8884;-59
2021/06/04 04:58:00;;;;;;;;;2.00;2.00;;;;;;;;5030151;28;8881;-60
2021/06/04 05:00:26;;;;;;;;;2.00;2.00;;;;;;;;5024756;28;8810;-60
2021/06/04 05:02:52;;;;;;;;;1.25;1.25;;;;;;;;5026593;28;8841;-59
2021/06/04 05:05:19;;;;;;;;;1.00;1.00;;;;;;;;5030325;28;11430;-59
2021/06/04 05:07:44;;;;;;;;;1.00;1.00;;;;;;;;5021315;28;9856;-60
2021/06/04 05:10:10;;;;;;;;;2.00;2.00;;;;;;;;5022555;28;8817;-60
2021/06/04 05:12:36;;;;;;;;;2.00;2.00;;;;;;;;5027144;28;8933;-60
2021/06/04 05:15:03;;;;;;;;;3.00;3.00;;;;;;;;5028018;28;9549;-60
2021/06/04 05:17:28;;;;;;;;;1.50;1.50;;;;;;;;5031569;28;8791;-59
2021/06/04 05:19:54;;;;;;;;;2.00;2.00;;;;;;;;5027223;28;12700;-60
2021/06/04 05:22:19;;;;;;;;;2.00;2.00;;;;;;;;5019170;28;11516;-60
2021/06/04 05:24:45;;;;;;;;;3.00;3.00;;;;;;;;5026227;28;8795;-60
2021/06/04 05:27:11;;;;;;;;;3.00;3.00;;;;;;;;5021059;28;9702;-60
2021/06/04 05:29:36;;;;;;;;;2.25;2.25;;;;;;;;5027378;28;8801;-60
2021/06/04 05:32:02;;;;;;;;;2.00;2.00;;;;;;;;5024973;28;11546;-59
2021/06/04 05:34:27;;;;;;;;;2.25;2.25;;;;;;;;5025262;28;8803;-60
2021/06/04 05:36:52;;;;;;;;;3.00;3.00;;;;;;;;5026400;28;8858;-59
2021/06/04 05:39:19;;;;;;;;;2.00;2.00;;;;;;;;5021927;28;11635;-60
2021/06/04 05:41:46;;;;;;;;;2.50;2.50;;;;;;;;5023441;28;8825;-60
2021/06/04 05:44:14;;;;;;;;;2.75;2.75;;;;;;;;5024673;28;8824;-60
2021/06/04 05:46:43;;;;;;;;;2.00;2.00;;;;;;;;5023241;28;9636;-60
2021/06/04 05:49:08;;;;;;;;;2.50;2.50;;;;;;;;5027441;28;8924;-60
2021/06/04 05:51:34;;;;;;;;;2.00;2.00;;;;;;;;5018550;28;8938;-60
2021/06/04 05:53:59;;;;;;;;;2.00;2.00;;;;;;;;5020969;28;9633;-60
2021/06/04 05:56:27;;;;;;;;;2.33;2.00;;;;;;;;5027810;28;9037;-60
2021/06/04 05:58:52;;;;;;;;;3.25;3.00;;;;;;;;5021001;28;8791;-60
2021/06/04 06:01:20;;;;;;;;;2.33;2.00;;;;;;;;5023370;28;8821;-60
2021/06/04 06:03:45;;;;;;;;;4.00;4.00;;;;;;;;5021698;28;8803;-60
2021/06/04 06:06:12;;;;;;;;;3.00;3.00;;;;;;;;5020560;28;10478;-59
2021/06/04 06:08:38;;;;;;;;;4.00;3.00;;;;;;;;5028531;28;9364;-60
2021/06/04 06:11:03;;;;;;;;;3.67;3.67;;;;;;;;5021888;28;9511;-59
2021/06/04 06:13:29;;;;;;;;;3.67;3.67;;;;;;;;5024219;28;11340;-60
2021/06/04 06:15:55;;;;;;;;;5.67;5.33;;;;;;;;5022103;28;8818;-68
2021/06/04 06:18:21;;;;;;;;;6.00;6.00;;;;;;;;5011766;28;12718;-71
2021/06/04 06:20:47;;;;;;;;;5.25;4.75;;;;;;;;5012275;28;11563;-58
2021/06/04 06:23:20;;;;;;;;;5.33;5.00;;;;;;;;5013165;28;11485;-57
2021/06/04 06:25:47;;;;;;;;;5.00;5.00;;;;;;;;5019035;28;9269;-68
2021/06/04 06:28:14;;;;;;;;;4.25;4.25;;;;;;;;5021285;28;8933;-60
2021/06/04 06:30:40;;;;;;;;;6.50;6.50;;;;;;;;5020765;28;12574;-68
2021/06/04 06:33:06;;;;;;;;;5.67;5.67;;;;;;;;5023794;28;11532;-68
2021/06/04 06:35:31;;;;;;;;;6.00;6.00;;;;;;;;5024563;28;11638;-68
2021/06/04 06:37:57;;;;;;;;;6.00;5.33;;;;;;;;5008888;28;12645;-61
2021/06/04 06:40:22;;;;;;;;;5.67;5.00;;;;;;;;5010376;28;8837;-67
2021/06/04 06:42:47;;;;;;;;;7.67;6.67;;;;;;;;5022957;28;12472;-65
2021/06/04 06:45:13;;;;;;;;;4.67;4.67;;;;;;;;5019397;28;11371;-68
2021/06/04 06:47:38;;;;;;;;;5.00;5.00;;;;;;;;5017536;28;9537;-58
2021/06/04 06:50:05;;;;;;;;;6.00;5.00;;;;;;;;5018438;28;11543;-60
2021/06/04 06:52:31;;;;;;;;;4.75;4.75;;;;;;;;5021302;28;8921;-58
2021/06/04 06:54:56;;;;;;;;;4.00;4.00;;;;;;;;5021458;28;11477;-58
2021/06/04 06:57:22;;;;;;;;;3.33;3.33;;;;;;;;5023559;28;8811;-64
2021/06/04 06:59:47;;;;;;;;;7.00;7.00;;;;;;;;5027000;28;11502;-59
2021/06/04 07:02:12;;;;;;;;;7.33;6.67;;;;;;;;5030420;28;11573;-59
2021/06/04 07:04:37;;;;;;;;;9.33;8.00;;;;;;;;5025979;28;10453;-59
2021/06/04 07:07:03;;;;;;;;;8.67;8.67;;;;;;;;5025887;28;11660;-59
2021/06/04 07:09:29;;;;;;;;;7.67;7.67;;;;;;;;5028569;28;11559;-59
2021/06/04 07:11:55;;;;;;;;;8.00;8.00;;;;;;;;5023288;28;8807;-60
2021/06/04 07:14:22;;;;;;;;;9.50;8.50;;;;;;;;5032430;28;11565;-59
2021/06/04 07:16:48;;;;;;;;;8.75;8.50;;;;;;;;5027724;28;11648;-59
2021/06/04 07:19:14;;;;;;;;;7.25;7.25;;;;;;;;5027820;28;9075;-59
2021/06/04 07:21:40;;;;;;;;;9.00;9.00;;;;;;;;5028546;28;11488;-60
2021/06/04 07:24:12;;;;;;;;;8.00;8.00;;;;;;;;5023498;28;11640;-60
2021/06/04 07:26:38;;;;;;;;;8.00;8.00;;;;;;;;5029727;28;8833;-60
2021/06/04 07:29:03;;;;;;;;;9.50;9.00;;;;;;;;5028742;28;8799;-60
2021/06/04 07:31:30;;;;;;;;;9.00;9.00;;;;;;;;5028975;28;10624;-62
2021/06/04 07:33:56;;;;;;;;;7.50;7.50;;;;;;;;5030859;28;8783;-59
2021/06/04 07:36:27;;;;;;;;;8.00;8.00;;;;;;;;5027671;28;11549;-59
2021/06/04 07:38:53;;;;;;;;;8.50;8.50;;;;;;;;5024302;28;11657;-59
2021/06/04 07:41:18;;;;;;;;;8.00;6.67;;;;;;;;5025145;28;8993;-59
2021/06/04 07:43:44;;;;;;;;;7.33;7.33;;;;;;;;5024913;28;11591;-59
2021/06/04 07:46:11;;;;;;;;;7.00;7.00;;;;;;;;5030193;28;11620;-59
2021/06/04 07:48:36;;;;;;;;;5.00;5.00;;;;;;;;5027403;28;9820;-59
2021/06/04 07:51:03;;;;;;;;;8.00;7.00;;;;;;;;5025222;28;8822;-59
2021/06/04 07:53:30;;;;;;;;;9.00;9.00;;;;;;;;5029210;28;8939;-59
2021/06/04 07:55:56;;;;;;;;;5.75;5.25;;;;;;;;5023013;28;8854;-59
2021/06/04 07:58:21;;;;;;;;;6.00;6.00;;;;;;;;5023970;28;11568;-59
2021/06/04 08:00:46;;;;;;;;;5.00;5.00;;;;;;;;5028435;28;11688;-59
2021/06/04 08:03:12;;;;;;;;;7.00;7.00;;;;;;;;5023518;28;8795;-59
2021/06/04 08:05:37;;;;;;;;;8.00;7.00;;;;;;;;5030556;28;8811;-60
2021/06/04 08:08:05;;;;;;;;;7.33;6.67;;;;;;;;5027511;28;8890;-59
2021/06/04 08:10:31;;;;;;;;;6.00;6.00;;;;;;;;5025293;28;11761;-59
2021/06/04 08:12:56;;;;;;;;;5.67;5.67;;;;;;;;5024291;28;11492;-59
2021/06/04 08:15:24;;;;;;;;;7.00;6.67;;;;;;;;5025365;28;11483;-59
2021/06/04 08:17:49;;;;;;;;;6.25;6.25;;;;;;;;5029400;28;10519;-60
2021/06/04 08:20:22;;;;;;;;;6.00;6.00;;;;;;;;5034799;28;11479;-59
2021/06/04 08:22:47;;;;;;;;;7.00;7.00;;;;;;;;5021084;28;8833;-59
2021/06/04 08:25:14;;;;;;;;;6.00;5.67;;;;;;;;5023351;28;9821;-59
2021/06/04 08:27:40;;;;;;;;;6.50;6.50;;;;;;;;5025621;28;15287;-59
2021/06/04 08:30:07;;;;;;;;;6.00;6.00;;;;;;;;5025653;28;10472;-59
2021/06/04 08:32:33;;;;;;;;;5.75;5.75;;;;;;;;5029018;28;8855;-59
2021/06/04 08:35:00;;;;;;;;;6.00;5.00;;;;;;;;5027555;28;11497;-59
2021/06/04 08:37:26;;;;;;;;;6.25;6.25;;;;;;;;5029585;28;13397;-59
2021/06/04 08:39:51;;;;;;;;;5.33;5.33;;;;;;;;5026811;28;11654;-59
2021/06/04 08:42:30;;;;;;;;;5.67;5.33;;;;;;;;5022894;28;8838;-59
2021/06/04 08:44:58;;;;;;;;;7.00;7.00;;;;;;;;5028673;28;8833;-60
2021/06/04 08:47:26;;;;;;;;;5.50;5.50;;;;;;;;5027073;28;12678;-59
2021/06/04 08:49:57;;;;;;;;;6.00;6.00;;;;;;;;5023662;28;12945;-58
2021/06/04 08:52:50;;;;;;;;;5.75;5.75;;;;;;;;5027865;28;11601;-60
2021/06/04 08:55:34;;;;;;;;;7.25;7.25;;;;;;;;5029172;28;11629;-59
2021/06/04 08:58:05;;;;;;;;;4.25;4.25;;;;;;;;5020029;28;10768;-59
2021/06/04 09:00:41;;;;;;;;;6.00;5.50;;;;;;;;5028149;28;9168;-59
2021/06/04 09:03:24;;;;;;;;;3.75;3.25;;;;;;;;5023488;28;13545;-59
2021/06/04 09:05:52;;;;;;;;;6.75;6.75;;;;;;;;5024768;28;11748;-60
2021/06/04 09:08:31;;;;;;;;;7.75;7.50;;;;;;;;5026941;28;10522;-59
2021/06/04 09:10:58;;;;;;;;;7.50;7.00;;;;;;;;5024221;28;11563;-59
2021/06/04 09:13:26;;;;;;;;;8.75;6.75;;;;;;;;5025602;28;8911;-59
2021/06/04 09:15:54;;;;;;;;;8.75;7.75;;;;;;;;5027440;28;11584;-60
2021/06/04 09:18:22;;;;;;;;;8.50;8.25;;;;;;;;5026241;28;8778;-59
2021/06/04 09:20:47;;;;;;;;;7.50;7.50;;;;;;;;5023192;28;9745;-60
2021/06/04 09:23:13;;;;;;;;;7.00;7.00;;;;;;;;5027052;28;11556;-59
2021/06/04 09:25:39;;;;;;;;;8.50;8.25;;;;;;;;5022300;28;8943;-59
2021/06/04 09:28:10;;;;;;;;;6.67;6.67;;;;;;;;5023586;28;11676;-59
2021/06/04 09:30:35;;;;;;;;;8.00;7.25;;;;;;;;5028670;28;12652;-59
2021/06/04 09:33:03;;;;;;;;;6.00;6.00;;;;;;;;5022045;28;11534;-60
2021/06/04 09:35:28;;;;;;;;;6.25;5.25;;;;;;;;5031931;28;11708;-59
2021/06/04 09:38:07;;;;;;;;;7.33;6.67;;;;;;;;5022974;28;10656;-59
2021/06/04 09:40:33;;;;;;;;;7.25;6.75;;;;;;;;5022658;28;12788;-59
2021/06/04 09:43:07;;;;;;;;;9.25;8.25;;;;;;;;5024113;28;8913;-60
2021/06/04 09:45:39;;;;;;;;;7.00;7.00;;;;;;;;5025733;28;10585;-59
2021/06/04 09:48:28;;;;;;;;;4.00;4.00;;;;;;;;5025307;28;11587;-59
2021/06/04 09:51:03;;;;;;;;;7.25;6.25;;;;;;;;5027958;28;9019;-59
2021/06/04 09:53:28;;;;;;;;;7.25;7.00;;;;;;;;5024059;28;11643;-59
2021/06/04 09:56:05;;;;;;;;;6.67;6.67;;;;;;;;5021575;28;9179;-59
2021/06/04 09:58:32;;;;;;;;;6.00;6.00;;;;;;;;5024100;28;12725;-59
2021/06/04 10:00:59;;;;;;;;;7.25;7.00;;;;;;;;5023608;28;8802;-59
2021/06/04 10:03:36;;;;;;;;;6.50;6.00;;;;;;;;5028571;28;10697;-59
2021/06/04 10:06:04;;;;;;;;;6.50;6.50;;;;;;;;5025051;28;10734;-59
2021/06/04 10:08:30;;;;;;;;;5.75;5.75;;;;;;;;5025108;28;8892;-59
2021/06/04 10:11:05;;;;;;;;;7.00;6.33;;;;;;;;5026751;28;11556;-59
2021/06/04 10:13:36;;;;;;;;;7.00;5.75;;;;;;;;5024650;28;10566;-59
2021/06/04 10:16:04;;;;;;;;;6.00;6.00;;;;;;;;5023426;28;8773;-59
2021/06/04 10:18:33;;;;;;;;;4.00;4.00;;;;;;;;5028877;28;12754;-59
2021/06/04 10:21:10;;;;;;;;;6.50;6.25;;;;;;;;5027934;28;9177;-59
2021/06/04 10:23:37;;;;;;;;;6.50;6.25;;;;;;;;5026190;28;11582;-59
2021/06/04 10:26:21;;;;;;;;;6.50;6.50;;;;;;;;5031126;28;8795;-59
2021/06/04 10:28:51;;;;;;;;;7.25;6.00;;;;;;;;5027804;28;9945;-59
2021/06/04 10:31:16;;;;;;;;;6.50;5.75;;;;;;;;5027136;28;11706;-59
2021/06/04 10:34:01;;;;;;;;;4.25;4.25;;;;;;;;5030563;28;11536;-59
2021/06/04 10:36:27;;;;;;;;;6.75;6.00;;;;;;;;5027895;28;10598;-59
2021/06/04 10:38:55;;;;;;;;;6.50;6.00;;;;;;;;5026931;28;11631;-59
2021/06/04 10:41:33;;;;;;;;;7.50;6.50;;;;;;;;5028355;28;9643;-59
2021/06/04 10:44:13;;;;;;;;;5.25;5.25;;;;;;;;5025938;28;11579;-59
2021/06/04 10:46:45;;;;;;;;;5.00;5.00;;;;;;;;5029684;28;11570;-60
2021/06/04 10:49:29;;;;;;;;;8.00;7.00;;;;;;;;5030192;28;8904;-58
2021/06/04 10:51:57;;;;;;;;;7.25;7.25;;;;;;;;5023165;28;8816;-59
2021/06/04 10:54:34;;;;;;;;;6.00;6.00;;;;;;;;5030077;28;12677;-59
2021/06/04 10:57:00;;;;;;;;;5.00;4.75;;;;;;;;5023973;28;12929;-59
2021/06/04 10:59:32;;;;;;;;;5.00;5.00;;;;;;;;5022640;28;11560;-59
2021/06/04 11:02:14;;;;;;;;;6.50;6.50;;;;;;;;5024054;28;9063;-59
2021/06/04 11:04:42;;;;;;;;;6.25;6.00;;;;;;;;5025237;28;11779;-59
2021/06/04 11:07:29;;;;;;;;;7.00;7.00;;;;;;;;5025832;28;8805;-59
2021/06/04 11:10:01;;;;;;;;;3.75;3.50;;;;;;;;5028436;28;10561;-59
2021/06/04 11:12:35;;;;;;;;;6.00;6.00;;;;;;;;5026201;28;11830;-59
2021/06/04 11:15:11;;;;;;;;;5.50;5.50;;;;;;;;5026662;28;11564;-60
2021/06/04 11:17:48;;;;;;;;;6.25;6.00;;;;;;;;5032359;28;11831;-59
2021/06/04 11:20:19;;;;;;;;;7.00;6.00;;;;;;;;5027072;28;15799;-59
2021/06/04 11:22:47;;;;;;;;;5.75;5.75;;;;;;;;5024283;28;10167;-59
2021/06/04 11:25:27;;;;;;;;;6.00;6.00;;;;;;;;5029132;28;11558;-59
2021/06/04 11:28:22;;;;;;;;;6.25;5.50;;;;;;;;5027181;28;12662;-59
2021/06/04 11:30:50;;;;;;;;;6.75;5.75;;;;;;;;5028666;28;10523;-60
2021/06/04 11:33:15;;;;;;;;;4.50;4.50;;;;;;;;5029546;28;8902;-59
2021/06/04 11:35:48;;;;;;;;;6.00;6.00;;;;;;;;5025228;28;11547;-59
2021/06/04 11:38:20;;;;;;;;;6.50;6.50;;;;;;;;5027572;28;17128;-59
2021/06/04 11:40:49;;;;;;;;;7.00;6.00;;;;;;;;5026407;28;8805;-59
2021/06/04 11:43:15;;;;;;;;;5.25;5.25;;;;;;;;5027302;28;11573;-60
2021/06/04 11:45:42;;;;;;;;;5.00;5.00;;;;;;;;5027280;28;11462;-59
2021/06/04 11:48:31;;;;;;;;;6.00;6.00;;;;;;;;5031472;28;8771;-59
2021/06/04 11:51:16;;;;;;;;;5.50;5.50;;;;;;;;5027708;28;8913;-60
2021/06/04 11:53:42;;;;;;;;;5.00;5.00;;;;;;;;5027568;28;11797;-59
2021/06/04 11:56:27;;;;;;;;;5.67;5.00;;;;;;;;5025872;28;8791;-59
2021/06/04 11:58:53;;;;;;;;;4.75;4.75;;;;;;;;5026646;28;9507;-60
2021/06/04 12:01:21;;;;;;;;;4.33;4.33;;;;;;;;5026342;28;11732;-60
2021/06/04 12:03:50;;;;;;;;;4.25;4.25;;;;;;;;5031559;28;8809;-60
2021/06/04 12:06:26;;;;;;;;;5.00;5.00;;;;;;;;5025246;28;8779;-59
2021/06/04 12:08:52;;;;;;;;;5.00;5.00;;;;;;;;5029531;28;11584;-60
2021/06/04 12:11:17;;;;;;;;;6.00;6.00;;;;;;;;5024930;28;8810;-60
2021/06/04 12:13:47;;;;;;;;;5.67;5.67;;;;;;;;5023198;28;8841;-60
2021/06/04 12:16:25;;;;;;;;;5.50;4.50;;;;;;;;5022566;28;11628;-59
2021/06/04 12:19:00;;;;;;;;;5.00;4.75;;;;;;;;5014926;28;10554;-71
2021/06/04 12:21:37;;;;;;;;;6.00;6.00;;;;;;;;5012705;28;8775;-72
2021/06/04 12:24:03;;;;;;;;;5.75;5.75;;;;;;;;5025185;28;11667;-78
2021/06/04 12:26:33;;;;;;;;;5.67;5.67;;;;;;;;5025203;28;11477;-78
2021/06/04 12:28:58;;;;;;;;;7.00;6.00;;;;;;;;5023101;28;8810;-82
2021/06/04 12:31:41;;;;;;;;;6.00;6.00;;;;;;;;5029600;28;13283;-70
2021/06/04 12:34:09;;;;;;;;;5.50;5.00;;;;;;;;5024110;28;8795;-73
2021/06/04 12:36:40;;;;;;;;;6.00;6.00;;;;;;;;5024087;28;10545;-78
2021/06/04 12:39:28;;;;;;;;;5.25;5.25;;;;;;;;5024835;28;11650;-70
2021/06/04 12:42:09;;;;;;;;;6.50;6.50;;;;;;;;5022809;28;11515;-80
2021/06/04 12:44:34;;;;;;;;;4.50;4.50;;;;;;;;5024886;28;11570;-81
2021/06/04 12:46:59;;;;;;;;;7.00;7.00;;;;;;;;5025438;28;8795;-79
2021/06/04 12:49:25;;;;;;;;;5.00;5.00;;;;;;;;5025868;28;11478;-75
2021/06/04 12:51:51;;;;;;;;;7.00;6.00;;;;;;;;5024515;28;8833;-75
2021/06/04 12:54:21;;;;;;;;;5.50;5.50;;;;;;;;5026460;28;8890;-71
2021/06/04 12:56:49;;;;;;;;;4.50;4.50;;;;;;;;5022289;28;11578;-70
2021/06/04 12:59:16;;;;;;;;;5.75;5.75;;;;;;;;5026689;28;9032;-71
2021/06/04 13:02:02;;;;;;;;;5.25;5.25;;;;;;;;5023634;28;11642;-74
2021/06/04 13:04:32;;;;;;;;;7.00;5.75;;;;;;;;5018566;28;8908;-72
2021/06/04 13:06:58;;;;;;;;;4.00;4.00;;;;;;;;5023506;28;12515;-77
2021/06/04 13:09:26;;;;;;;;;6.00;6.00;;;;;;;;5024687;28;11579;-78
2021/06/04 13:11:51;;;;;;;;;5.50;4.75;;;;;;;;5024822;28;11177;-77
2021/06/04 13:14:28;;;;;;;;;5.00;4.00;;;;;;;;5025491;28;11560;-60
2021/06/04 13:16:55;;;;;;;;;5.00;5.00;;;;;;;;5017401;28;8864;-66
2021/06/04 13:19:25;;;;;;;;;3.75;3.00;;;;;;;;5022662;28;8786;-69
2021/06/04 13:21:52;;;;;;;;;4.25;4.25;;;;;;;;5023714;28;10554;-71
2021/06/04 13:24:25;;;;;;;;;5.00;5.00;;;;;;;;5019975;28;12633;-69
2021/06/04 13:26:52;;;;;;;;;5.25;5.25;;;;;;;;5017657;28;11569;-73
2021/06/04 13:29:53;;;;;;;;;6.00;6.00;;;;;;;;5024326;28;10759;-74
2021/06/04 13:32:20;;;;;;;;;6.75;5.75;;;;;;;;5022969;28;15754;-72
2021/06/04 13:34:49;;;;;;;;;5.50;5.50;;;;;;;;5024271;28;11797;-71
2021/06/04 13:37:18;;;;;;;;;6.25;5.75;;;;;;;;5026312;28;11391;-71
2021/06/04 13:39:44;;;;;;;;;7.00;7.00;;;;;;;;5023027;28;11596;-72
2021/06/04 13:42:11;;;;;;;;;7.67;7.67;;;;;;;;5018568;28;11476;-69
2021/06/04 13:44:36;;;;;;;;;5.75;5.75;;;;;;;;5024365;28;8880;-69
2021/06/04 13:47:05;;;;;;;;;4.00;4.00;;;;;;;;5025822;28;12711;-69
2021/06/04 13:49:32;;;;;;;;;6.25;6.25;;;;;;;;5027335;28;11800;-68
2021/06/04 13:51:59;;;;;;;;;6.00;6.00;;;;;;;;5021860;28;11714;-68
2021/06/04 13:54:26;;;;;;;;;6.50;6.50;;;;;;;;5020584;28;8827;-56
2021/06/04 13:56:52;;;;;;;;;6.50;6.50;;;;;;;;5024906;28;9024;-73
2021/06/04 13:59:19;;;;;;;;;5.00;5.00;;;;;;;;5027736;28;8795;-70
2021/06/04 14:01:54;;;;;;;;;7.00;7.00;;;;;;;;5027123;28;14774;-73
2021/06/04 14:04:38;;;;;;;;;6.00;6.00;;;;;;;;5025916;28;8951;-73
2021/06/04 14:07:04;;;;;;;;;5.75;5.75;;;;;;;;5019634;28;8795;-70
2021/06/04 14:09:36;;;;;;;;;6.50;6.50;;;;;;;;5022924;28;11554;-82
2021/06/04 14:12:05;;;;;;;;;5.00;5.00;;;;;;;;5019693;28;12682;-78
2021/06/04 14:14:33;;;;;;;;;4.50;4.50;;;;;;;;5021454;28;11408;-78
2021/06/04 14:16:59;;;;;;;;;5.00;5.00;;;;;;;;5026840;28;11564;-70
2021/06/04 14:19:32;;;;;;;;;5.00;3.67;;;;;;;;5023152;28;11545;-76
2021/06/04 14:21:59;;;;;;;;;6.00;6.00;;;;;;;;5023031;28;8936;-74
2021/06/04 14:24:33;;;;;;;;;5.50;5.00;;;;;;;;5027553;28;11644;-82
2021/06/04 14:26:59;;;;;;;;;5.50;5.50;;;;;;;;5021891;28;10549;-81
2021/06/04 14:29:32;;;;;;;;;4.00;4.00;;;;;;;;5027204;28;8803;-82
2021/06/04 14:32:04;;;;;;;;;4.25;4.25;;;;;;;;5022786;28;11667;-73
2021/06/04 14:34:39;;;;;;;;;5.00;4.25;;;;;;;;5024262;28;8808;-74
2021/06/04 14:37:12;;;;;;;;;5.00;5.00;;;;;;;;5026675;28;9059;-80
2021/06/04 14:39:40;;;;;;;;;6.00;6.00;;;;;;;;5026527;28;9150;-58
2021/06/04 14:42:11;;;;;;;;;4.75;4.75;;;;;;;;5019800;28;8865;-58
2021/06/04 14:44:36;;;;;;;;;6.00;5.00;;;;;;;;5023894;28;11953;-66
2021/06/04 14:47:12;;;;;;;;;5.00;4.33;;;;;;;;5024417;28;11490;-57
2021/06/04 14:49:38;;;;;;;;;6.25;6.25;;;;;;;;5023126;28;11616;-70
2021/06/04 14:52:03;;;;;;;;;5.33;5.00;;;;;;;;5026364;28;10725;-68
2021/06/04 14:54:29;;;;;;;;;5.00;4.67;;;;;;;;5023896;28;11493;-60
2021/06/04 14:56:54;;;;;;;;;6.00;5.67;;;;;;;;5019897;28;10790;-61
2021/06/04 14:59:19;;;;;;;;;6.00;5.00;;;;;;;;5026235;28;8859;-62
2021/06/04 15:01:44;;;;;;;;;5.00;5.00;;;;;;;;5020503;28;8845;-72